Weather observations for the past three days for
Amarillo, Amarillo International Airport
Imperial (Metric)
Date Time (cdt) Wind (mph) Vis. (mi.) Weather Sky Cond. Temperature (ºF) Relative Humidity Wind Chill (°F) Heat Index (°F) Pressure Precipitation (in)
Air Dwpt 6 hour altimeter (in) sea level (mb) 1 hr 3 hr 6 hr
Max. Min.
06 10:53 S 15 10.00 Fair CLR 87.1 63 45% 88 30.1 1012.8
06 09:53 S 13 10.00 A Few Clouds FEW120 82 62.1 51% 83 30.09 1012.7
06 08:53 S 12 10.00 Fair CLR 79 61 54% 80 30.08 1012.4
06 07:53 S 9 10.00 Fair CLR 75 60.1 60% 77 30.07 1012.0
06 06:53 SE 7 10.00 Fair CLR 72 61 77 72 68% 30.06 1011.9
06 05:53 SE 6 10.00 Fair CLR 73.9 60.1 62% 30.06 1011.5
06 04:53 S 8 10.00 Fair CLR 75 60.1 60% 77 30.04 1010.8
06 03:53 S 7 10.00 Mostly Cloudy BKN120 75 60.1 60% 77 30.04 1010.9
06 02:53 SE 9 10.00 Fair CLR 75 59 58% 77 30.04 1010.8
06 01:53 SE 10 10.00 Fair CLR 75.9 59 56% 78 30.05 1011.1
06 00:53 SE 9 10.00 Fair CLR 75.9 60.1 91.9 75.9 58% 78 30.05 1011.3
05 23:53 SE 14 10.00 Fair CLR 80.1 59 49% 81 30.04 1011.1
05 22:53 SE 15 10.00 Fair CLR 82 59 46% 82 30.05 1011.2
05 21:53 SE 15 10.00 Fair CLR 84 57.9 41% 83 30.02 1010.4
05 20:53 SE 15 10.00 Fair CLR 84.9 57 39% 84 30 1009.9
05 18:53 SE 16 G 22 10.00 A Few Clouds FEW110 91.9 59 97 91 33% 91 29.97 1008.7
05 17:53 SE 15 10.00 Fair CLR 93.9 57.9 30% 93 29.95 1007.9
05 16:53 S 9 10.00 Fair CLR 96.1 57.9 28% 95 29.96 1007.8
05 15:53 SE 14 G 17 10.00 Fair CLR 93.9 57.9 30% 93 29.98 1008.9
05 12:53 S 14 10.00 Fair CLR 91 63 91 70 39% 92 30.05 1010.9
05 11:53 S 14 10.00 Fair CLR 87.1 64 46% 88 30.06 1011.5
05 10:53 S 16 10.00 Fair CLR 82.9 63 51% 84 30.06 1011.5
05 09:53 S 16 10.00 Fair CLR 79 63 58% 81 30.06 1011.7
05 08:53 S 10 10.00 Fair CLR 75 63 66% 77 30.06 1011.9
05 07:53 SE 12 10.00 Fair CLR 71.1 63 76% 30.05 1011.5
05 06:53 SE 9 10.00 Fair CLR 70 63 80.1 70 79% 30.04 1011.0
05 05:53 E 10 10.00 Mostly Cloudy BKN120 73.9 64 71% 30.04 1010.7
05 04:53 E 7 10.00 Fair CLR 75 62.1 64% 77 30.03 1010.4
05 03:53 S 9 10.00 Fair CLR 75.9 62.1 62% 78 30.03 1010.3
05 02:53 S 13 10.00 Partly Cloudy SCT090 78.1 62.1 58% 80 30.03 1010.2
05 01:53 S 13 10.00 Fair CLR 78.1 62.1 58% 80 30.04 1010.4
05 00:53 S 14 10.00 Fair CLR 80.1 61 93 79 52% 81 30.03 1010.2
04 23:53 S 10 10.00 Fair CLR 80.1 61 52% 81 30.03 1010.4
04 22:53 S 13 10.00 Fair CLR 82.9 59 44% 83 30.03 1010.4
04 21:53 SE 13 10.00 Mostly Cloudy BKN120 84 57.9 41% 83 30 1009.7
04 20:53 SE 12 10.00 Mostly Cloudy BKN120 86 57.9 39% 85 29.97 1008.7
04 19:53 SE 12 10.00 Fair CLR 88 57.9 36% 87 29.96 1008.6
04 18:53 SE 14 10.00 Fair CLR 93 55.9 99 93 29% 91 29.95 1007.8
04 17:53 SE 15 10.00 Fair CLR 96.1 53.1 23% 94 29.94 1007.4
04 16:53 S 21 G 26 10.00 Fair and Breezy CLR 97 54 24% 95 29.94 1007.6
04 15:53 SE 8 10.00 Fair CLR 97 55 24% 95 29.96 1007.9
04 14:53 SE 9 G 20 10.00 Fair CLR 97 55.9 25% 95 29.98 1008.9
04 13:53 S 13 10.00 Fair CLR 96.1 57.9 28% 95 30 1009.3
04 11:53 S 10 10.00 Fair CLR 91 60.1 35% 91 30.03 1010.5
04 10:53 S 9 10.00 Fair CLR 86 61 43% 86 30.02 1010.5
04 08:53 S 8 10.00 Fair CLR 75 62.1 64% 77 30.02 1010.9
04 07:53 S 6 10.00 Fair CLR 70 63 79% 30.01 1010.9
04 06:53 S 6 10.00 Fair CLR 71.1 64 75.9 70 79% 30 1010.2
04 05:53 S 10 10.00 Fair CLR 71.1 64 79% 29.98 1009.9
04 04:53 SE 10 10.00 Fair CLR 71.1 63 76% 29.97 1008.8
04 03:53 SE 10 10.00 Fair CLR 72 62.1 71% 29.97 1008.6
04 02:53 SE 12 10.00 Fair CLR 71.1 62.1 73% 29.98 1008.6
04 01:53 S 8 10.00 Fair CLR 73 61 66% 29.98 1008.9
04 00:53 S 16 10.00 Fair CLR 75 61 82 73.9 62% 77 29.98 1008.7
03 23:53 SE 13 10.00 Fair CLR 73.9 60.1 62% 29.98 1008.9
03 22:53 SE 16 10.00 Fair CLR 77 57 50% 79 29.98 1008.9
03 21:53 SE 17 10.00 Fair CLR 78.1 57 48% 79 29.97 1008.8
03 20:53 SE 14 10.00 Fair CLR 79 57 47% 80 29.95 1008.5
03 19:53 SE 25 G 37 10.00 Fair and Breezy CLR 80.1 57.9 47% 81 29.96 1009.0
03 18:53 SE 23 G 31 10.00 Thunderstorm in Vicinity and Breezy FEW110 82 60.1 99 75 47% 82 29.94 1008.4 0.17
03 17:53 SE 28 G 37 10.00 Thunderstorm and Windy FEW055 FEW110 79 59 50% 80 29.94 1008.4 0.17
03 16:53 NW 8 9.00 Light Rain FEW070 SCT090 BKN110 91 55.9 31% 89 29.92 1007.1
03 15:53 S 14 G 20 10.00 A Few Clouds FEW085 96.1 52 23% 93 29.93 1006.8
03 14:53 S 14 10.00 A Few Clouds FEW100 99 53.1 21% 97 29.95 1007.5
03 13:53 Calm 10.00 Fair CLR 96.1 54 24% 94 29.98 1008.4
03 12:53 SW 13 G 20 10.00 Fair CLR 96.1 55 96.1 68 25% 94 30 1009.2
03 11:53 SW 17 G 25 10.00 Fair CLR 93.9 55.9 28% 92 30.02 1009.8
Date Time (cdt) Wind (mph) Vis. (mi.) Weather Sky Cond. Air Dwpt Max. Min. Relative Humidity Wind Chill (°F) Heat Index (°F) altimeter (in) sea level (mb) 1 hr 3 hr 6 hr
6 hour
Temperature (ºF) Pressure Precipitation (in)